createdAt,value
2018-04-27T00:00:54.158Z,53.50
2018-04-27T00:01:56.660Z,53.50
2018-04-27T00:02:59.924Z,53.50
2018-04-27T00:04:02.384Z,53.60
2018-04-27T00:05:05.158Z,53.60
2018-04-27T00:06:07.976Z,53.70
2018-04-27T00:07:10.504Z,53.70
2018-04-27T00:08:14.476Z,53.70
2018-04-27T00:09:16.945Z,53.70
2018-04-27T00:10:19.680Z,53.70
2018-04-27T00:11:22.440Z,53.80
2018-04-27T00:12:24.919Z,53.80
2018-04-27T00:13:27.383Z,53.80
2018-04-27T00:14:29.848Z,53.90
2018-04-27T00:15:32.636Z,53.90
2018-04-27T00:16:36.036Z,53.80
2018-04-27T00:17:38.600Z,53.80
2018-04-27T00:18:41.063Z,53.80
2018-04-27T00:19:43.632Z,53.70
2018-04-27T00:20:46.467Z,53.70
2018-04-27T00:21:48.972Z,53.60
2018-04-27T00:22:51.442Z,53.50
2018-04-27T00:23:53.924Z,53.30
2018-04-27T00:24:56.392Z,53.30
2018-04-27T00:25:59.095Z,53.30
2018-04-27T00:27:01.584Z,53.80
2018-04-27T00:28:04.052Z,53.20
2018-04-27T00:29:06.516Z,53.10
2018-04-27T00:30:09.363Z,53.10
2018-04-27T00:31:12.169Z,53.00
2018-04-27T00:32:14.661Z,53.00
2018-04-27T00:33:17.123Z,53.00
2018-04-27T00:34:19.627Z,52.80
2018-04-27T00:35:22.400Z,53.50
2018-04-27T00:36:25.275Z,53.00
2018-04-27T00:37:27.761Z,52.90
2018-04-27T00:38:30.236Z,52.80
2018-04-27T00:39:32.706Z,52.60
2018-04-27T00:40:36.372Z,52.70
2018-04-27T00:41:38.879Z,52.60
2018-04-27T00:42:42.106Z,52.60
2018-04-27T00:43:44.572Z,52.60
2018-04-27T00:44:47.035Z,52.60
2018-04-27T00:45:49.750Z,52.60
2018-04-27T00:46:52.266Z,52.60
2018-04-27T00:47:54.734Z,52.90
2018-04-27T00:48:57.203Z,52.50
2018-04-27T00:49:59.667Z,52.50
2018-04-27T00:51:02.334Z,52.50
2018-04-27T00:52:04.856Z,52.50
2018-04-27T00:53:14.327Z,53.00
2018-04-27T00:54:16.849Z,52.50
2018-04-27T00:55:19.665Z,52.50
2018-04-27T00:56:22.334Z,52.50
2018-04-27T00:57:24.844Z,52.60
2018-04-27T00:58:27.307Z,52.70
2018-04-27T00:59:29.785Z,52.70
2018-04-27T01:00:32.544Z,52.80
2018-04-27T01:01:35.028Z,52.90
2018-04-27T01:02:37.584Z,53.00
2018-04-27T01:03:40.056Z,53.10
2018-04-27T01:04:42.527Z,53.60
2018-04-27T01:05:46.096Z,53.20
2018-04-27T01:06:49.352Z,53.30
2018-04-27T01:07:51.835Z,53.20
2018-04-27T01:08:54.296Z,53.30
2018-04-27T01:09:56.764Z,53.30
2018-04-27T01:10:59.404Z,53.40
2018-04-27T01:12:01.896Z,53.40
2018-04-27T01:13:04.396Z,53.50
2018-04-27T01:14:07.628Z,53.70
2018-04-27T01:15:10.202Z,53.70
2018-04-27T01:16:12.784Z,53.70
2018-04-27T01:17:15.265Z,53.90
2018-04-27T01:18:17.765Z,53.90
2018-04-27T01:19:20.233Z,54.00
2018-04-27T01:20:22.862Z,54.10
2018-04-27T01:21:26.392Z,54.30
2018-04-27T01:22:28.892Z,54.20
2018-04-27T01:23:31.381Z,54.40
2018-04-27T01:24:33.844Z,54.50
2018-04-27T01:25:37.525Z,54.60
2018-04-27T01:26:40.040Z,54.70
2018-04-27T01:27:42.511Z,54.80
2018-04-27T01:28:45.020Z,54.90
2018-04-27T01:29:47.489Z,54.90
2018-04-27T01:30:50.309Z,55.00
2018-04-27T01:31:52.812Z,55.10
2018-04-27T01:32:55.272Z,55.20
2018-04-27T01:33:57.779Z,55.30
2018-04-27T01:35:01.012Z,55.40
2018-04-27T01:36:03.757Z,55.40
2018-04-27T01:37:06.300Z,55.50
2018-04-27T01:38:09.532Z,55.50
2018-04-27T01:39:12.040Z,55.50
2018-04-27T01:40:14.785Z,55.60
2018-04-27T01:41:18.433Z,55.70
2018-04-27T01:42:20.919Z,55.70
2018-04-27T01:43:23.387Z,55.70
2018-04-27T01:44:25.867Z,55.80
2018-04-27T01:45:28.597Z,55.80
2018-04-27T01:46:31.100Z,55.80
2018-04-27T01:47:33.568Z,55.80
2018-04-27T01:48:36.040Z,55.80
2018-04-27T01:49:38.552Z,55.90
2018-04-27T01:50:41.267Z,55.90
2018-04-27T01:51:43.843Z,56.00
2018-04-27T01:52:46.306Z,56.00
2018-04-27T01:53:48.986Z,56.00
2018-04-27T01:54:52.235Z,56.10
2018-04-27T01:55:55.084Z,56.10
2018-04-27T01:56:57.572Z,56.10
2018-04-27T01:58:00.039Z,56.20
2018-04-27T01:59:02.504Z,56.20
2018-04-27T02:00:05.352Z,56.30
2018-04-27T02:01:08.175Z,56.80
2018-04-27T02:02:11.427Z,56.60
2018-04-27T02:03:13.895Z,56.40
2018-04-27T02:04:16.371Z,56.50
2018-04-27T02:05:19.925Z,56.60
2018-04-27T02:06:22.599Z,56.60
2018-04-27T02:07:25.064Z,56.70
2018-04-27T02:08:27.558Z,56.70
2018-04-27T02:09:30.081Z,56.80
2018-04-27T02:10:32.962Z,56.80
2018-04-27T02:11:35.440Z,56.90
2018-04-27T02:12:37.904Z,56.90
2018-04-27T02:13:40.373Z,56.90
2018-04-27T02:14:42.836Z,57.50
2018-04-27T02:15:45.645Z,57.10
2018-04-27T02:16:48.144Z,57.10
2018-04-27T02:17:51.377Z,57.10
2018-04-27T02:18:53.841Z,57.10
2018-04-27T02:19:56.309Z,57.10
2018-04-27T02:20:59.140Z,57.10
2018-04-27T02:22:01.650Z,57.10
2018-04-27T02:23:04.113Z,57.10
2018-04-27T02:24:06.578Z,57.10
2018-04-27T02:25:09.364Z,57.00
2018-04-27T02:26:13.959Z,57.00
2018-04-27T02:27:16.460Z,56.90
2018-04-27T02:28:19.692Z,56.90
2018-04-27T02:29:22.183Z,56.90
2018-04-27T02:30:25.733Z,56.80
2018-04-27T02:31:28.492Z,56.80
2018-04-27T02:32:30.979Z,56.70
2018-04-27T02:33:33.988Z,56.60
2018-04-27T02:34:36.453Z,56.50
2018-04-27T02:35:39.372Z,56.40
2018-04-27T02:36:41.880Z,56.40
2018-04-27T02:37:44.351Z,56.20
2018-04-27T02:38:46.824Z,56.20
2018-04-27T02:39:49.289Z,56.10
2018-04-27T02:40:53.537Z,55.90
2018-04-27T02:41:56.056Z,55.90
2018-04-27T02:42:58.524Z,56.00
2018-04-27T02:44:01.056Z,55.90
2018-04-27T02:45:03.832Z,55.80
2018-04-27T02:46:06.908Z,55.80
2018-04-27T02:47:10.932Z,55.70
2018-04-27T02:48:13.401Z,55.70
2018-04-27T02:49:15.900Z,55.60
2018-04-27T02:50:19.502Z,55.60
2018-04-27T02:51:22.296Z,55.60
2018-04-27T02:52:24.784Z,55.60
2018-04-27T02:53:27.253Z,55.50
2018-04-27T02:54:29.717Z,55.50
2018-04-27T02:55:32.439Z,55.50
2018-04-27T02:56:34.944Z,55.50
2018-04-27T02:57:37.440Z,55.50
2018-04-27T02:58:39.903Z,55.50
2018-04-27T02:59:42.370Z,55.50
2018-04-27T03:00:45.887Z,55.50
2018-04-27T03:01:48.508Z,55.50
2018-04-27T03:02:50.999Z,55.50
2018-04-27T03:03:54.244Z,55.50
2018-04-27T03:04:56.713Z,55.50
2018-04-27T03:05:59.541Z,55.40
2018-04-27T03:07:02.051Z,55.50
2018-04-27T03:08:04.544Z,55.60
2018-04-27T03:09:07.782Z,55.60
2018-04-27T03:10:10.583Z,55.50
2018-04-27T03:11:15.034Z,55.60
2018-04-27T03:12:18.556Z,55.60
2018-04-27T03:13:21.068Z,55.70
2018-04-27T03:14:24.312Z,55.60
2018-04-27T03:15:27.073Z,55.60
2018-04-27T03:16:29.710Z,55.60
2018-04-27T03:17:32.169Z,55.60
2018-04-27T03:18:34.652Z,55.60
2018-04-27T03:19:37.119Z,55.70
2018-04-27T03:20:39.815Z,55.70
2018-04-27T03:21:43.803Z,55.80
2018-04-27T03:22:46.268Z,55.80
2018-04-27T03:23:48.793Z,55.80
2018-04-27T03:24:52.016Z,55.90
2018-04-27T03:25:54.755Z,55.90
2018-04-27T03:26:57.256Z,56.00
2018-04-27T03:27:59.719Z,56.00
2018-04-27T03:29:02.203Z,55.90
2018-04-27T03:30:04.669Z,56.00
2018-04-27T03:31:08.516Z,56.10
2018-04-27T03:32:11.012Z,56.10
2018-04-27T03:33:13.479Z,56.20
2018-04-27T03:34:16.059Z,56.20
2018-04-27T03:35:19.602Z,56.40
2018-04-27T03:36:22.367Z,56.30
2018-04-27T03:37:24.825Z,56.40
2018-04-27T03:38:27.292Z,56.40
2018-04-27T03:39:29.801Z,56.50
2018-04-27T03:40:32.640Z,56.50
2018-04-27T03:41:35.148Z,56.60
2018-04-27T03:42:37.628Z,56.70
2018-04-27T03:43:40.095Z,56.80
2018-04-27T03:44:43.352Z,56.80
2018-04-27T03:45:46.013Z,56.80
2018-04-27T03:46:48.492Z,56.80
2018-04-27T03:47:50.962Z,56.80
2018-04-27T03:48:53.440Z,56.90
2018-04-27T03:49:55.953Z,56.90
2018-04-27T03:50:58.601Z,57.00
2018-04-27T03:52:01.096Z,57.00
2018-04-27T03:53:03.556Z,57.00
2018-04-27T03:54:06.035Z,57.00
2018-04-27T03:55:08.755Z,57.10
2018-04-27T03:56:11.542Z,57.10
2018-04-27T03:57:14.044Z,57.10
2018-04-27T03:58:16.507Z,57.10
2018-04-27T03:59:30.921Z,57.10
2018-04-27T04:00:45.564Z,57.60
2018-04-27T04:03:35.384Z,57.00
2018-04-27T04:04:49.751Z,57.00
2018-04-27T04:05:52.437Z,57.00
2018-04-27T04:06:54.987Z,57.00
2018-04-27T04:07:57.463Z,57.00
2018-04-27T04:09:00.692Z,57.20
2018-04-27T04:10:03.160Z,57.20
2018-04-27T04:11:05.906Z,57.20
2018-04-27T04:12:08.391Z,57.30
2018-04-27T04:13:10.861Z,57.30
2018-04-27T04:14:13.341Z,57.40
2018-04-27T04:15:16.920Z,57.40
2018-04-27T04:16:19.661Z,57.50
2018-04-27T04:17:22.176Z,57.50
2018-04-27T04:18:24.649Z,57.60
2018-04-27T04:19:27.907Z,57.90
2018-04-27T04:20:30.691Z,57.90
2018-04-27T04:21:33.320Z,58.00
2018-04-27T04:22:35.783Z,58.40
2018-04-27T04:23:38.248Z,58.20
2018-04-27T04:24:40.720Z,58.30
2018-04-27T04:25:43.378Z,58.40
2018-04-27T04:26:45.900Z,58.60
2018-04-27T04:27:48.369Z,58.70
2018-04-27T04:28:50.836Z,58.90
2018-04-27T04:29:53.298Z,58.70
2018-04-27T04:30:57.437Z,59.10
2018-04-27T04:31:59.968Z,59.70
2018-04-27T04:33:02.433Z,59.30
2018-04-27T04:34:04.904Z,59.40
2018-04-27T04:35:09.488Z,59.60
2018-04-27T04:36:13.034Z,59.60
2018-04-27T04:37:15.550Z,59.60
2018-04-27T04:38:18.062Z,59.60
2018-04-27T04:39:21.324Z,59.80
2018-04-27T04:40:25.760Z,59.90
2018-04-27T04:41:29.586Z,59.80
2018-04-27T04:42:32.104Z,59.90
2018-04-27T04:43:35.388Z,60.20
2018-04-27T04:44:38.653Z,60.50
2018-04-27T04:45:41.375Z,60.50
2018-04-27T04:46:43.879Z,60.70
2018-04-27T04:47:46.360Z,61.00
2018-04-27T04:48:49.600Z,61.90
2018-04-27T04:49:52.073Z,61.30
2018-04-27T04:50:54.810Z,61.40
2018-04-27T04:51:57.312Z,61.50
2018-04-27T04:52:59.800Z,61.70
2018-04-27T04:54:02.270Z,62.00
2018-04-27T04:55:05.508Z,62.40
2018-04-27T04:56:08.303Z,62.40
2018-04-27T04:57:11.568Z,63.40
2018-04-27T04:58:14.059Z,62.80
2018-04-27T04:59:16.524Z,63.00
2018-04-27T05:00:19.251Z,63.20
2018-04-27T05:01:22.022Z,63.40
2018-04-27T05:02:24.492Z,63.60
2018-04-27T05:03:27.079Z,63.90
2018-04-27T05:04:29.540Z,63.90
2018-04-27T05:05:32.288Z,64.00
2018-04-27T05:06:34.751Z,64.20
2018-04-27T05:07:37.240Z,64.50
2018-04-27T05:08:40.035Z,65.30
2018-04-27T05:09:42.549Z,65.50
2018-04-27T05:10:45.145Z,65.00
2018-04-27T05:11:47.580Z,65.20
2018-04-27T05:12:50.065Z,65.50
2018-04-27T05:13:52.564Z,65.80
2018-04-27T05:14:55.196Z,65.90
2018-04-27T05:15:57.967Z,65.50
2018-04-27T05:17:00.614Z,66.20
2018-04-27T05:19:54.972Z,66.40
2018-04-27T05:20:58.689Z,66.60
2018-04-27T05:22:01.194Z,66.60
2018-04-27T05:23:03.670Z,66.80
2018-04-27T05:24:06.135Z,66.80
2018-04-27T05:25:09.603Z,66.80
2018-04-27T05:26:13.057Z,66.60
2018-04-27T05:27:15.728Z,66.60
2018-04-27T05:28:18.382Z,66.40
2018-04-27T05:29:20.873Z,66.10
2018-04-27T05:30:23.630Z,66.00
2018-04-27T05:31:26.330Z,65.90
2018-04-27T05:32:28.840Z,65.80
2018-04-27T05:33:32.116Z,65.60
2018-04-27T05:34:34.580Z,65.60
2018-04-27T05:35:39.125Z,64.50
2018-04-27T05:36:41.795Z,65.00
2018-04-27T05:37:44.362Z,64.80
2018-04-27T05:38:46.883Z,64.70
2018-04-27T05:39:49.408Z,64.70
2018-04-27T05:40:52.982Z,64.90
2018-04-27T05:41:55.480Z,64.40
2018-04-27T05:42:58.016Z,64.20
2018-04-27T05:44:00.539Z,63.60
2018-04-27T05:45:03.805Z,63.30
2018-04-27T05:46:07.402Z,63.20
2018-04-27T05:47:10.719Z,62.70
2018-04-27T05:48:13.962Z,62.50
2018-04-27T05:49:16.620Z,62.50
2018-04-27T05:50:20.486Z,62.40
2018-04-27T05:51:24.117Z,62.40
2018-04-27T05:52:26.600Z,62.40
2018-04-27T05:53:29.263Z,62.50
2018-04-27T05:54:31.732Z,62.40
2018-04-27T05:55:35.315Z,62.50
2018-04-27T05:56:39.365Z,62.40
2018-04-27T05:57:41.887Z,62.40
2018-04-27T05:58:44.351Z,62.00
2018-04-27T05:59:46.820Z,61.50
2018-04-27T06:00:49.648Z,61.20
2018-04-27T06:01:52.152Z,61.00
2018-04-27T06:02:55.511Z,60.90
2018-04-27T06:04:08.816Z,60.90
2018-04-27T06:05:11.619Z,60.90
2018-04-27T06:06:14.549Z,60.70
2018-04-27T06:07:17.070Z,60.70
2018-04-27T06:08:21.852Z,60.50
2018-04-27T06:09:24.312Z,60.50
2018-04-27T06:10:26.980Z,60.40
2018-04-27T06:11:29.749Z,60.50
2018-04-27T06:12:36.289Z,60.60
2018-04-27T06:13:39.973Z,60.40
2018-04-27T06:14:43.464Z,60.00
2018-04-27T06:15:46.867Z,59.70
2018-04-27T06:16:49.382Z,59.70
2018-04-27T06:17:52.640Z,59.80
2018-04-27T06:18:55.100Z,59.30
2018-04-27T06:19:57.563Z,59.20
2018-04-27T06:21:00.221Z,59.10
2018-04-27T06:22:02.708Z,59.10
2018-04-27T06:23:05.195Z,59.10
2018-04-27T06:24:07.663Z,59.10
2018-04-27T06:25:10.476Z,59.10
2018-04-27T06:26:13.965Z,59.00
2018-04-27T06:27:16.460Z,59.10
2018-04-27T06:28:18.952Z,59.00
2018-04-27T06:29:21.415Z,58.90
2018-04-27T06:30:24.947Z,58.70
2018-04-27T06:31:27.653Z,58.40
2018-04-27T06:32:30.325Z,58.40
2018-04-27T06:33:32.812Z,58.30
2018-04-27T06:34:36.064Z,58.20
2018-04-27T06:35:38.844Z,58.10
2018-04-27T06:36:41.385Z,58.10
2018-04-27T06:37:43.996Z,58.00
2018-04-27T06:38:46.493Z,58.00
2018-04-27T06:39:49.052Z,58.00
2018-04-27T06:40:52.676Z,57.60
2018-04-27T06:41:55.198Z,57.50
2018-04-27T06:42:57.671Z,57.50
2018-04-27T06:44:00.920Z,57.30
2018-04-27T06:45:03.591Z,57.30
2018-04-27T06:46:07.071Z,57.20
2018-04-27T06:47:12.988Z,56.70
2018-04-27T06:48:15.487Z,56.70
2018-04-27T06:49:17.982Z,56.40
2018-04-27T06:50:21.953Z,56.30
2018-04-27T06:51:25.551Z,56.00
2018-04-27T06:52:28.073Z,56.00
2018-04-27T06:53:30.543Z,55.90
2018-04-27T06:54:33.045Z,55.70
2018-04-27T06:55:35.863Z,55.70
2018-04-27T06:56:38.414Z,55.60
2018-04-27T06:57:41.720Z,55.50
2018-04-27T06:58:44.235Z,55.50
2018-04-27T06:59:46.742Z,55.50
2018-04-27T07:00:49.429Z,55.40
2018-04-27T07:01:51.937Z,55.50
2018-04-27T07:02:54.457Z,55.40
2018-04-27T07:03:56.924Z,55.30
2018-04-27T07:04:59.477Z,55.20
2018-04-27T07:06:02.106Z,55.00
2018-04-27T07:07:05.362Z,54.80
2018-04-27T07:08:07.827Z,54.80
2018-04-27T07:09:10.288Z,54.80
2018-04-27T07:10:13.274Z,54.80
2018-04-27T07:11:17.029Z,54.70
2018-04-27T07:12:19.569Z,54.50
2018-04-27T07:13:22.804Z,54.50
2018-04-27T07:14:25.304Z,54.50
2018-04-27T07:15:28.933Z,54.40
2018-04-27T07:16:32.425Z,54.30
2018-04-27T07:17:34.969Z,54.00
2018-04-27T07:18:38.380Z,54.00
2018-04-27T07:19:40.867Z,53.90
2018-04-27T07:20:44.356Z,53.70
2018-04-27T07:21:47.035Z,53.60
2018-04-27T07:22:49.512Z,53.50
2018-04-27T07:23:51.992Z,53.40
2018-04-27T07:24:55.266Z,53.50
2018-04-27T07:25:58.147Z,53.20
2018-04-27T07:27:01.421Z,53.30
2018-04-27T07:28:03.931Z,53.30
2018-04-27T07:29:06.431Z,53.30
2018-04-27T07:30:09.277Z,53.20
2018-04-27T07:31:13.504Z,53.30
2018-04-27T07:32:16.052Z,53.30
2018-04-27T07:33:18.543Z,53.10
2018-04-27T07:34:21.125Z,53.20
2018-04-27T07:35:23.945Z,53.30
2018-04-27T07:36:26.824Z,53.30
2018-04-27T07:37:29.333Z,53.30
2018-04-27T07:38:31.859Z,53.40
2018-04-27T07:39:34.360Z,53.40
2018-04-27T07:40:37.094Z,53.50
2018-04-27T07:41:39.811Z,53.60
2018-04-27T07:42:42.305Z,53.60
2018-04-27T07:43:44.806Z,53.60
2018-04-27T07:44:47.282Z,53.60
2018-04-27T07:45:50.069Z,53.50
2018-04-27T07:46:52.573Z,53.50
2018-04-27T07:47:56.556Z,53.60
2018-04-27T07:48:59.864Z,53.60
2018-04-27T07:50:02.338Z,53.60
2018-04-27T07:51:05.003Z,53.60
2018-04-27T07:52:07.540Z,53.60
2018-04-27T07:53:10.144Z,53.70
2018-04-27T07:54:12.828Z,53.80
2018-04-27T07:55:15.490Z,53.70
2018-04-27T07:56:19.077Z,53.60
2018-04-27T07:57:21.608Z,53.70
2018-04-27T07:58:24.851Z,53.80
2018-04-27T07:59:27.521Z,53.70
2018-04-27T08:00:30.564Z,53.70
2018-04-27T08:01:33.073Z,53.60
2018-04-27T08:02:35.567Z,53.60
2018-04-27T08:03:39.832Z,53.70
2018-04-27T08:04:42.324Z,53.70
2018-04-27T08:05:45.897Z,53.50
2018-04-27T08:06:49.151Z,53.20
2018-04-27T08:07:51.637Z,52.90
2018-04-27T08:08:54.129Z,52.90
2018-04-27T08:09:56.602Z,52.80
2018-04-27T08:11:01.451Z,52.70
2018-04-27T08:12:03.977Z,52.60
2018-04-27T08:13:06.541Z,52.50
2018-04-27T08:14:09.011Z,52.30
2018-04-27T08:15:11.737Z,52.20
2018-04-27T08:16:14.746Z,52.30
2018-04-27T08:17:18.020Z,52.10
2018-04-27T08:18:20.550Z,52.10
2018-04-27T08:19:23.032Z,52.10
2018-04-27T08:20:29.772Z,52.00
2018-04-27T08:21:32.592Z,51.70
2018-04-27T08:22:37.688Z,51.50
2018-04-27T08:23:40.176Z,51.50
2018-04-27T08:24:42.636Z,51.30
2018-04-27T08:25:45.471Z,51.30
2018-04-27T08:26:47.982Z,51.10
2018-04-27T08:27:51.327Z,51.00
2018-04-27T08:28:53.831Z,50.70
2018-04-27T08:29:56.324Z,50.40
2018-04-27T08:30:59.940Z,49.80
2018-04-27T08:32:02.445Z,49.80
2018-04-27T08:33:04.907Z,49.80
2018-04-27T08:34:07.407Z,49.80
2018-04-27T08:35:10.986Z,50.10
2018-04-27T08:36:14.676Z,49.60
2018-04-27T08:37:17.936Z,49.60
2018-04-27T08:38:20.408Z,49.50
2018-04-27T08:39:22.899Z,49.60
2018-04-27T08:40:26.427Z,49.60
2018-04-27T08:41:29.191Z,49.60
2018-04-27T08:42:31.677Z,49.60
2018-04-27T08:43:34.171Z,49.70
2018-04-27T08:44:36.692Z,49.60
2018-04-27T08:45:39.397Z,49.30
2018-04-27T08:46:43.385Z,49.30
2018-04-27T08:47:45.930Z,49.30
2018-04-27T08:48:49.138Z,49.20
2018-04-27T08:49:51.623Z,49.20
2018-04-27T08:50:57.247Z,49.10
2018-04-27T08:51:59.732Z,49.10
2018-04-27T08:53:02.204Z,49.10
2018-04-27T08:54:05.508Z,49.30
2018-04-27T08:55:08.297Z,49.20
2018-04-27T08:56:11.165Z,49.10
2018-04-27T08:57:13.667Z,49.10
2018-04-27T08:58:16.136Z,49.10
2018-04-27T08:59:18.744Z,49.10
2018-04-27T09:00:22.356Z,49.40
2018-04-27T09:01:25.172Z,49.10
2018-04-27T09:02:29.168Z,49.20
2018-04-27T09:03:31.648Z,49.20
2018-04-27T09:04:34.896Z,49.10
2018-04-27T09:05:39.021Z,49.00
2018-04-27T09:06:42.331Z,48.80
2018-04-27T09:07:45.604Z,48.60
2018-04-27T09:08:48.091Z,48.50
2018-04-27T09:09:51.330Z,48.50
2018-04-27T09:10:54.203Z,48.50
2018-04-27T09:11:56.684Z,48.40
2018-04-27T09:12:59.152Z,48.30
2018-04-27T09:14:01.639Z,48.20
2018-04-27T09:15:05.148Z,48.20
2018-04-27T09:16:08.110Z,48.20
2018-04-27T09:17:10.587Z,48.30
2018-04-27T09:18:13.820Z,47.90
2018-04-27T09:19:16.326Z,47.90
2018-04-27T09:20:19.108Z,47.80
2018-04-27T09:21:21.981Z,47.60
2018-04-27T09:22:24.479Z,46.90
2018-04-27T09:23:27.760Z,46.80
2018-04-27T09:24:30.244Z,46.60
2018-04-27T09:25:32.984Z,46.50
2018-04-27T09:26:35.483Z,46.30
2018-04-27T09:27:37.963Z,46.20
2018-04-27T09:28:41.236Z,46.00
2018-04-27T09:29:43.763Z,45.90
2018-04-27T09:30:47.437Z,45.60
2018-04-27T09:31:50.742Z,45.60
2018-04-27T09:32:53.216Z,45.50
2018-04-27T09:33:55.741Z,45.30
2018-04-27T09:34:58.362Z,45.00
2018-04-27T09:36:02.320Z,44.90
2018-04-27T09:37:05.647Z,43.90
2018-04-27T09:38:08.187Z,43.80
2018-04-27T09:39:10.732Z,43.30
2018-04-27T09:40:13.814Z,42.30
2018-04-27T09:41:16.589Z,42.00
2018-04-27T09:42:19.079Z,42.00
2018-04-27T09:43:22.204Z,42.00
2018-04-27T09:44:25.546Z,41.30
2018-04-27T09:45:29.325Z,41.30
2018-04-27T09:46:32.195Z,41.00
2018-04-27T09:47:35.531Z,40.40
2018-04-27T09:48:39.521Z,40.40
2018-04-27T09:49:42.823Z,40.40
2018-04-27T09:50:46.699Z,40.20
2018-04-27T09:51:49.185Z,40.00
2018-04-27T09:52:52.448Z,39.50
2018-04-27T09:53:54.912Z,39.50
2018-04-27T09:54:57.379Z,38.90
2018-04-27T09:56:00.169Z,38.40
2018-04-27T09:57:02.669Z,38.90
2018-04-27T09:58:05.143Z,38.30
2018-04-27T09:59:07.624Z,38.20
2018-04-27T10:00:10.560Z,38.40
2018-04-27T10:01:13.715Z,38.40
2018-04-27T10:02:16.967Z,37.80
2018-04-27T10:03:19.766Z,37.80
2018-04-27T10:04:23.019Z,38.00
2018-04-27T10:05:26.264Z,38.00
2018-04-27T10:06:29.079Z,37.70
2018-04-27T10:07:32.115Z,37.20
2018-04-27T10:08:34.580Z,36.90
2018-04-27T10:09:37.060Z,36.30
2018-04-27T10:10:39.836Z,36.20
2018-04-27T10:11:42.374Z,36.10
2018-04-27T10:12:44.843Z,36.10
2018-04-27T10:13:48.101Z,35.90
2018-04-27T10:14:51.453Z,36.10
2018-04-27T10:15:54.183Z,36.00
2018-04-27T10:16:56.715Z,36.30
2018-04-27T10:17:59.952Z,36.90
2018-04-27T10:19:02.467Z,36.80
2018-04-27T10:20:04.942Z,37.50
2018-04-27T10:21:12.401Z,37.40
2018-04-27T10:22:15.257Z,37.40
2018-04-27T10:23:17.723Z,37.30
2018-04-27T10:24:20.219Z,36.50
2018-04-27T10:25:25.272Z,35.10
2018-04-27T10:26:28.043Z,35.10
2018-04-27T10:27:30.600Z,34.50
2018-04-27T10:28:33.108Z,34.20
2018-04-27T10:29:35.603Z,33.80
2018-04-27T10:30:38.412Z,33.70
2018-04-27T10:31:40.942Z,34.00
2018-04-27T10:32:43.423Z,34.20
2018-04-27T10:33:46.660Z,34.40
2018-04-27T10:34:49.123Z,34.30
2018-04-27T10:35:52.001Z,34.40
2018-04-27T10:36:54.487Z,34.50
2018-04-27T10:37:57.740Z,34.50
2018-04-27T10:39:00.256Z,34.90
2018-04-27T10:40:04.658Z,34.90
2018-04-27T10:41:07.249Z,34.90
2018-04-27T10:42:09.872Z,35.00
2018-04-27T10:43:12.400Z,35.10
2018-04-27T10:44:14.883Z,35.50
2018-04-27T10:45:17.727Z,34.90
2018-04-27T10:46:20.700Z,35.00
2018-04-27T10:47:23.200Z,34.80
2018-04-27T10:48:25.811Z,34.90
2018-04-27T10:49:29.040Z,35.10
2018-04-27T10:50:31.885Z,35.00
2018-04-27T10:51:34.383Z,35.30
2018-04-27T10:52:36.859Z,35.40
2018-04-27T10:53:39.336Z,35.40
2018-04-27T10:54:42.600Z,34.90
2018-04-27T10:55:45.346Z,34.90
2018-04-27T10:56:47.890Z,34.60
2018-04-27T10:57:50.380Z,34.10
2018-04-27T10:58:52.859Z,33.90
2018-04-27T10:59:55.328Z,34.00
2018-04-27T11:00:58.064Z,34.50
2018-04-27T11:02:00.559Z,34.10
2018-04-27T11:03:03.024Z,34.20
2018-04-27T11:04:05.511Z,34.50
2018-04-27T11:05:08.284Z,34.60
2018-04-27T11:06:11.921Z,34.20
2018-04-27T11:07:14.444Z,34.60
2018-04-27T11:08:16.926Z,34.40
2018-04-27T11:09:20.177Z,34.20
2018-04-27T11:10:23.350Z,34.20
2018-04-27T11:11:26.086Z,34.20
2018-04-27T11:12:28.616Z,34.10
2018-04-27T11:13:31.092Z,34.10
2018-04-27T11:14:34.321Z,33.60
2018-04-27T11:15:37.071Z,33.60
2018-04-27T11:16:39.576Z,33.70
2018-04-27T11:17:42.096Z,33.90
2018-04-27T11:18:44.583Z,33.60
2018-04-27T11:19:47.093Z,33.50
2018-04-27T11:20:49.800Z,33.20
2018-04-27T11:21:52.323Z,33.10
2018-04-27T11:22:55.629Z,33.00
2018-04-27T11:23:58.859Z,33.10
2018-04-27T11:25:01.338Z,33.10
2018-04-27T11:26:04.074Z,33.00
2018-04-27T11:27:06.580Z,33.60
2018-04-27T11:28:09.118Z,32.60
2018-04-27T11:29:11.595Z,32.30
2018-04-27T11:30:14.437Z,32.20
2018-04-27T11:31:18.027Z,32.10
2018-04-27T11:32:20.528Z,31.70
2018-04-27T11:33:23.017Z,31.60
2018-04-27T11:34:26.251Z,32.00
2018-04-27T11:35:29.036Z,32.00
2018-04-27T11:36:31.532Z,32.00
2018-04-27T11:37:33.999Z,31.70
2018-04-27T11:38:36.694Z,31.60
2018-04-27T11:39:39.200Z,31.40
2018-04-27T11:40:42.899Z,31.50
2018-04-27T11:41:45.387Z,31.10
2018-04-27T11:42:47.860Z,31.30
2018-04-27T11:43:51.116Z,31.10
2018-04-27T11:44:53.588Z,31.00
2018-04-27T11:45:56.417Z,30.80
2018-04-27T11:46:58.899Z,30.60
2018-04-27T11:48:01.375Z,30.40
2018-04-27T11:49:03.864Z,30.20
2018-04-27T11:50:06.332Z,30.20
2018-04-27T11:51:09.762Z,30.30
2018-04-27T11:52:12.268Z,30.30
2018-04-27T11:53:14.787Z,30.40
2018-04-27T11:54:17.235Z,30.30
2018-04-27T11:55:20.744Z,30.90
2018-04-27T11:56:23.723Z,30.40
2018-04-27T11:57:26.216Z,30.50
2018-04-27T11:58:28.676Z,30.80
2018-04-27T11:59:31.160Z,30.90
2018-04-27T12:00:34.705Z,31.10
2018-04-27T12:01:37.299Z,31.10
2018-04-27T12:02:40.490Z,30.80
2018-04-27T12:03:43.825Z,31.10
2018-04-27T12:04:46.296Z,31.10
2018-04-27T12:05:49.280Z,31.30
2018-04-27T12:06:51.801Z,31.40
2018-04-27T12:07:55.088Z,32.00
2018-04-27T12:08:58.364Z,32.30
2018-04-27T12:10:00.856Z,32.00
2018-04-27T12:11:04.301Z,31.80
2018-04-27T12:12:06.796Z,31.70
2018-04-27T12:13:10.031Z,32.00
2018-04-27T12:14:12.496Z,31.60
2018-04-27T12:15:15.348Z,31.80
2018-04-27T12:16:18.760Z,31.80
2018-04-27T12:17:22.032Z,32.10
2018-04-27T12:18:24.542Z,32.10
2018-04-27T12:19:27.991Z,32.60
2018-04-27T12:20:31.664Z,32.50
2018-04-27T12:21:34.193Z,32.60
2018-04-27T12:22:37.458Z,32.60
2018-04-27T12:23:40.756Z,32.60
2018-04-27T12:24:43.462Z,32.70
2018-04-27T12:25:46.341Z,32.80
2018-04-27T12:26:48.909Z,32.80
2018-04-27T12:27:51.380Z,32.90
2018-04-27T12:28:53.848Z,32.80
2018-04-27T12:29:56.324Z,32.80
2018-04-27T12:31:00.071Z,32.90
2018-04-27T12:32:03.311Z,33.20
2018-04-27T12:33:05.780Z,33.30
2018-04-27T12:34:08.257Z,33.30
2018-04-27T12:35:13.340Z,33.40
2018-04-27T12:36:16.273Z,33.40
2018-04-27T12:37:19.644Z,33.60
2018-04-27T12:38:22.136Z,33.60
2018-04-27T12:39:25.511Z,33.70
2018-04-27T12:40:29.140Z,33.70
2018-04-27T12:41:32.303Z,33.60
2018-04-27T12:42:35.544Z,33.20
2018-04-27T12:43:38.020Z,33.20
2018-04-27T12:44:41.336Z,33.40
2018-04-27T12:45:44.118Z,33.40
2018-04-27T12:46:46.660Z,33.70
2018-04-27T12:47:49.927Z,33.40
2018-04-27T12:48:52.413Z,33.40
2018-04-27T12:49:55.115Z,33.40
2018-04-27T12:50:57.888Z,33.00
2018-04-27T12:52:00.498Z,33.10
2018-04-27T12:53:03.011Z,33.20
2018-04-27T12:54:05.527Z,33.30
2018-04-27T12:55:08.408Z,33.20
2018-04-27T12:56:11.932Z,33.30
2018-04-27T12:57:14.605Z,33.30
2018-04-27T12:58:18.324Z,33.50
2018-04-27T12:59:20.800Z,33.40
2018-04-27T13:00:23.839Z,33.40
2018-04-27T13:01:26.859Z,33.60
2018-04-27T13:02:29.389Z,33.70
2018-04-27T13:03:31.882Z,33.70
2018-04-27T13:04:34.348Z,33.60
2018-04-27T13:05:37.127Z,33.70
2018-04-27T13:06:40.420Z,34.30
2018-04-27T13:07:42.982Z,33.80
2018-04-27T13:08:45.596Z,33.90
2018-04-27T13:09:48.925Z,34.10
2018-04-27T13:10:52.370Z,34.10
2018-04-27T13:11:55.633Z,34.00
2018-04-27T13:12:58.911Z,33.90
2018-04-27T13:14:03.140Z,33.60
2018-04-27T13:15:06.507Z,33.60
2018-04-27T13:16:09.952Z,33.60
2018-04-27T13:17:14.063Z,33.70
2018-04-27T13:18:16.572Z,33.70
2018-04-27T13:19:19.795Z,33.60
2018-04-27T13:20:22.745Z,33.60
2018-04-27T13:21:25.511Z,33.60
2018-04-27T13:22:28.094Z,33.70
2018-04-27T13:23:30.608Z,33.60
2018-04-27T13:24:33.076Z,33.30
2018-04-27T13:25:35.880Z,33.30
2018-04-27T13:26:38.484Z,33.40
2018-04-27T13:27:41.672Z,33.60
2018-04-27T13:28:44.808Z,33.60
2018-04-27T13:29:47.280Z,33.50
2018-04-27T13:30:50.147Z,33.60
2018-04-27T13:31:52.691Z,33.40
2018-04-27T13:32:56.596Z,33.60
2018-04-27T13:33:59.873Z,33.70